createdAt,value
2022-10-09T00:00:24.932Z,23.48
2022-10-09T00:02:51.747Z,23.48
2022-10-09T00:05:18.552Z,23.48
2022-10-09T00:07:45.044Z,23.47
2022-10-09T00:10:11.756Z,23.48
2022-10-09T00:12:38.364Z,23.46
2022-10-09T00:15:05.165Z,23.47
2022-10-09T00:17:31.609Z,23.46
2022-10-09T00:19:58.090Z,23.45
2022-10-09T00:22:24.619Z,23.44
2022-10-09T00:24:51.208Z,23.43
2022-10-09T00:27:17.982Z,23.43
2022-10-09T00:29:44.516Z,23.43
2022-10-09T00:32:11.088Z,23.43
2022-10-09T00:34:37.558Z,23.42
2022-10-09T00:37:04.118Z,23.42
2022-10-09T00:39:30.987Z,23.41
2022-10-09T00:41:57.434Z,23.40
2022-10-09T00:44:51.685Z,23.40
2022-10-09T00:47:29.116Z,23.40
2022-10-09T00:50:01.424Z,23.39
2022-10-09T00:52:28.370Z,23.38
2022-10-09T00:54:56.882Z,23.38
2022-10-09T00:57:24.632Z,23.38
2022-10-09T00:59:51.322Z,23.36
2022-10-09T01:02:17.888Z,23.36
2022-10-09T01:04:44.390Z,23.36
2022-10-09T01:07:22.605Z,23.36
2022-10-09T01:09:58.150Z,23.35
2022-10-09T01:12:49.522Z,23.35
2022-10-09T01:15:24.859Z,23.35
2022-10-09T01:18:12.836Z,23.35
2022-10-09T01:20:50.001Z,23.32
2022-10-09T01:23:38.575Z,23.33
2022-10-09T01:26:23.538Z,23.32
2022-10-09T01:28:55.401Z,23.31
2022-10-09T01:31:25.165Z,23.32
2022-10-09T01:33:52.303Z,23.31
2022-10-09T01:36:21.486Z,23.30
2022-10-09T01:38:48.565Z,23.29
2022-10-09T01:41:15.588Z,23.28
2022-10-09T01:43:42.081Z,23.29
2022-10-09T01:46:22.378Z,23.27
2022-10-09T01:49:16.819Z,23.28
2022-10-09T01:51:51.604Z,23.26
2022-10-09T01:54:28.399Z,23.25
2022-10-09T01:56:58.120Z,23.26
2022-10-09T01:59:27.471Z,23.25
2022-10-09T02:01:56.155Z,23.24
2022-10-09T02:04:26.322Z,23.25
2022-10-09T02:06:54.326Z,23.24
2022-10-09T02:09:22.360Z,23.23
2022-10-09T02:11:54.794Z,23.23
2022-10-09T02:14:21.414Z,23.22
2022-10-09T02:16:55.432Z,23.19
2022-10-09T02:19:37.516Z,23.20
2022-10-09T02:22:21.945Z,23.19
2022-10-09T02:24:48.766Z,23.18
2022-10-09T02:27:16.465Z,23.20
2022-10-09T02:29:45.307Z,23.18
2022-10-09T02:32:12.837Z,23.17
2022-10-09T02:34:39.507Z,23.17
2022-10-09T02:37:06.641Z,23.17
2022-10-09T02:39:33.366Z,23.17
2022-10-09T02:41:59.807Z,23.16
2022-10-09T02:44:26.427Z,23.15
2022-10-09T02:46:52.984Z,23.15
2022-10-09T02:49:19.846Z,23.15
2022-10-09T02:51:46.344Z,23.12
2022-10-09T02:54:14.037Z,23.12
2022-10-09T02:56:40.552Z,23.12
2022-10-09T02:59:07.611Z,23.12
2022-10-09T03:01:34.642Z,23.12
2022-10-09T03:04:01.249Z,23.11
2022-10-09T03:06:28.833Z,23.11
2022-10-09T03:08:55.987Z,23.09
2022-10-09T03:11:24.457Z,23.10
2022-10-09T03:13:51.415Z,23.09
2022-10-09T03:16:21.038Z,23.08
2022-10-09T03:18:48.740Z,23.08
2022-10-09T03:21:18.659Z,23.09
2022-10-09T03:23:45.571Z,23.07
2022-10-09T03:26:15.372Z,23.06
2022-10-09T03:28:44.559Z,23.08
2022-10-09T03:31:22.549Z,23.07
2022-10-09T03:33:54.152Z,23.07
2022-10-09T03:36:20.862Z,23.05
2022-10-09T03:38:47.339Z,23.03
2022-10-09T03:41:13.817Z,23.03
2022-10-09T03:43:40.259Z,23.03
2022-10-09T03:46:08.103Z,23.03
2022-10-09T03:48:35.466Z,23.01
2022-10-09T03:51:02.979Z,23.02
2022-10-09T03:53:29.535Z,23.01
2022-10-09T03:55:56.033Z,22.99
2022-10-09T03:58:22.690Z,23.00
2022-10-09T04:00:52.867Z,23.00
2022-10-09T04:03:20.695Z,23.01
2022-10-09T04:05:47.849Z,23.02
2022-10-09T04:08:14.418Z,23.03
2022-10-09T04:10:41.319Z,23.01
2022-10-09T04:13:11.047Z,23.01
2022-10-09T04:15:37.713Z,23.02
2022-10-09T04:18:05.025Z,23.01
2022-10-09T04:20:32.163Z,23.01
2022-10-09T04:22:58.743Z,23.02
2022-10-09T04:25:25.421Z,23.01
2022-10-09T04:27:51.936Z,23.02
2022-10-09T04:30:18.481Z,23.00
2022-10-09T04:32:44.987Z,23.00
2022-10-09T04:37:52.290Z,22.99
2022-10-09T04:40:18.785Z,23.01
2022-10-09T04:42:53.307Z,23.00
2022-10-09T04:45:19.773Z,22.99
2022-10-09T04:47:46.240Z,22.99
2022-10-09T04:50:12.717Z,22.98
2022-10-09T04:52:39.169Z,22.98
2022-10-09T04:55:06.170Z,22.99
2022-10-09T05:00:12.204Z,22.99
2022-10-09T05:02:38.707Z,22.99
2022-10-09T05:05:05.444Z,22.97
2022-10-09T05:07:32.122Z,22.97
2022-10-09T05:09:59.329Z,22.99
2022-10-09T05:12:25.957Z,22.99
2022-10-09T05:17:32.951Z,22.98
2022-10-09T05:19:59.447Z,22.97
2022-10-09T05:22:26.131Z,22.97
2022-10-09T05:24:52.609Z,22.96
2022-10-09T05:27:19.087Z,22.96
2022-10-09T05:29:45.651Z,22.96
2022-10-09T05:32:12.203Z,22.94
2022-10-09T05:34:39.627Z,22.94
2022-10-09T05:37:06.643Z,22.94
2022-10-09T05:42:16.239Z,22.93
2022-10-09T05:44:42.707Z,22.93
2022-10-09T05:47:09.166Z,22.94
2022-10-09T05:49:35.746Z,22.93
2022-10-09T05:52:02.407Z,22.92
2022-10-09T05:54:29.016Z,22.91
2022-10-09T05:56:55.553Z,22.92
2022-10-09T06:04:45.631Z,22.91
2022-10-09T06:07:12.101Z,22.90
2022-10-09T06:09:38.567Z,22.88
2022-10-09T06:12:05.077Z,22.88
2022-10-09T06:14:31.749Z,22.89
2022-10-09T06:16:59.121Z,22.89
2022-10-09T06:19:26.131Z,22.88
2022-10-09T06:21:52.751Z,22.89
2022-10-09T06:24:29.072Z,22.87
2022-10-09T06:26:57.440Z,22.88
2022-10-09T06:29:24.200Z,22.85
2022-10-09T06:31:50.723Z,22.85
2022-10-09T06:34:17.940Z,22.82
2022-10-09T06:36:44.443Z,22.83
2022-10-09T06:39:11.196Z,22.83
2022-10-09T06:41:37.768Z,22.83
2022-10-09T06:44:06.042Z,22.83
2022-10-09T06:46:38.198Z,22.83
2022-10-09T06:49:06.194Z,22.83
2022-10-09T06:51:33.918Z,22.82
2022-10-09T06:54:03.021Z,22.83
2022-10-09T06:56:31.813Z,22.82
2022-10-09T06:59:14.832Z,22.83
2022-10-09T07:01:41.363Z,22.82
2022-10-09T07:04:11.979Z,22.83
2022-10-09T07:06:40.025Z,22.82
2022-10-09T07:09:08.711Z,22.83
2022-10-09T07:11:42.918Z,22.81
2022-10-09T07:16:52.206Z,22.82
2022-10-09T07:19:19.023Z,22.82
2022-10-09T07:21:48.699Z,22.80
2022-10-09T07:24:16.747Z,22.80
2022-10-09T07:26:46.123Z,22.79
2022-10-09T07:29:14.850Z,22.81
2022-10-09T07:31:41.389Z,22.78
2022-10-09T07:34:08.265Z,22.80
2022-10-09T07:36:34.893Z,22.79
2022-10-09T07:39:02.280Z,22.79
2022-10-09T07:41:30.093Z,22.80
2022-10-09T07:43:57.567Z,22.79
2022-10-09T07:46:27.664Z,22.80
2022-10-09T07:48:57.419Z,22.80
2022-10-09T07:51:29.135Z,22.79
2022-10-09T07:53:57.324Z,22.79
2022-10-09T07:56:30.024Z,22.78
2022-10-09T07:58:58.880Z,22.77
2022-10-09T08:01:29.530Z,22.77
2022-10-09T08:06:37.578Z,22.79
2022-10-09T08:09:06.188Z,22.79
2022-10-09T08:11:33.322Z,22.78
2022-10-09T08:14:00.765Z,22.78
2022-10-09T08:16:28.010Z,22.78
2022-10-09T08:21:38.476Z,22.79
2022-10-09T08:24:13.056Z,22.79
2022-10-09T08:26:39.611Z,22.78
2022-10-09T08:29:08.460Z,22.77
2022-10-09T08:31:35.003Z,22.76
2022-10-09T08:34:03.403Z,22.73
2022-10-09T08:36:31.059Z,22.73
2022-10-09T08:38:57.940Z,22.73
2022-10-09T08:41:40.010Z,22.73
2022-10-09T08:44:10.642Z,22.74
2022-10-09T08:47:00.131Z,22.74
2022-10-09T08:49:41.831Z,22.74
2022-10-09T08:52:26.609Z,22.75
2022-10-09T08:54:55.809Z,22.75
2022-10-09T08:57:23.503Z,22.75
2022-10-09T08:59:50.149Z,22.75
2022-10-09T09:02:31.595Z,22.77
2022-10-09T09:05:16.711Z,22.77
2022-10-09T09:08:11.242Z,22.77
2022-10-09T09:10:42.644Z,22.79
2022-10-09T09:13:30.840Z,22.77
2022-10-09T09:16:20.427Z,22.80
2022-10-09T09:19:11.046Z,22.79
2022-10-09T09:21:46.660Z,22.81
2022-10-09T09:24:17.567Z,22.81
2022-10-09T09:26:48.206Z,22.81
2022-10-09T09:29:18.944Z,22.82
2022-10-09T09:31:48.262Z,22.82
2022-10-09T09:34:22.334Z,22.82
2022-10-09T09:36:53.051Z,22.84
2022-10-09T09:40:15.638Z,22.82
2022-10-09T09:42:09.656Z,22.83
2022-10-09T09:44:45.096Z,22.83
2022-10-09T09:47:26.005Z,22.83
2022-10-09T09:50:00.768Z,22.83
2022-10-09T09:52:31.677Z,22.86
2022-10-09T09:54:59.088Z,22.90
2022-10-09T09:57:40.655Z,22.90
2022-10-09T10:00:17.429Z,22.91
2022-10-09T10:02:44.429Z,22.93
2022-10-09T10:05:26.211Z,22.97
2022-10-09T10:07:53.400Z,22.99
2022-10-09T10:10:25.294Z,23.00
2022-10-09T10:12:52.673Z,23.01
2022-10-09T10:15:26.431Z,23.03
2022-10-09T10:18:03.240Z,23.04
2022-10-09T10:20:46.430Z,23.07
2022-10-09T10:23:57.191Z,23.08
2022-10-09T10:26:28.294Z,23.10
2022-10-09T10:29:08.292Z,23.10
2022-10-09T10:31:56.358Z,23.12
2022-10-09T10:34:35.403Z,23.14
2022-10-09T10:37:20.913Z,23.15
2022-10-09T10:40:28.320Z,23.16
2022-10-09T10:43:10.060Z,23.17
2022-10-09T10:45:58.419Z,23.18
2022-10-09T10:48:31.531Z,23.19
2022-10-09T10:51:19.458Z,23.19
2022-10-09T10:53:45.977Z,23.19
2022-10-09T10:56:46.420Z,23.19
2022-10-09T10:59:39.541Z,23.19
2022-10-09T11:02:12.712Z,23.18
2022-10-09T11:05:07.714Z,23.19
2022-10-09T11:07:46.935Z,23.20
2022-10-09T11:10:29.978Z,23.19
2022-10-09T11:13:04.898Z,23.21
2022-10-09T11:15:43.291Z,23.22
2022-10-09T11:18:28.388Z,23.23
2022-10-09T11:21:12.959Z,23.23
2022-10-09T11:23:45.354Z,23.25
2022-10-09T11:26:32.163Z,23.25
2022-10-09T11:29:10.858Z,23.27
2022-10-09T11:31:52.574Z,23.26
2022-10-09T11:34:26.854Z,23.28
2022-10-09T11:36:53.669Z,23.30
2022-10-09T11:39:23.608Z,23.30
2022-10-09T11:41:52.890Z,23.31
2022-10-09T11:44:37.914Z,23.33
2022-10-09T11:47:07.668Z,23.32
2022-10-09T11:49:57.430Z,23.34
2022-10-09T11:52:30.085Z,23.34
2022-10-09T11:55:08.088Z,23.36
2022-10-09T11:57:35.559Z,23.37
2022-10-09T12:00:10.275Z,23.37
2022-10-09T12:02:39.889Z,23.38
2022-10-09T12:05:39.034Z,23.41
2022-10-09T12:08:19.513Z,23.42
2022-10-09T12:10:53.239Z,23.43
2022-10-09T12:13:39.719Z,23.44
2022-10-09T12:16:10.124Z,23.45
2022-10-09T12:18:38.652Z,23.45
2022-10-09T12:21:16.646Z,23.46
2022-10-09T12:23:47.308Z,23.48
2022-10-09T12:31:47.160Z,23.51
2022-10-09T12:37:11.597Z,23.54
2022-10-09T12:42:23.666Z,23.57
2022-10-09T12:44:54.117Z,23.58
2022-10-09T12:47:26.678Z,23.60
2022-10-09T12:50:16.374Z,23.62
2022-10-09T12:52:59.276Z,23.63
2022-10-09T12:55:43.902Z,23.64
2022-10-09T12:58:19.165Z,23.66
2022-10-09T13:00:51.056Z,23.66
2022-10-09T13:03:26.252Z,23.67
2022-10-09T13:05:53.440Z,23.68
2022-10-09T13:08:43.223Z,23.71
2022-10-09T13:11:20.522Z,23.71
2022-10-09T13:13:59.746Z,23.74
2022-10-09T13:16:26.727Z,23.75
2022-10-09T13:21:42.261Z,23.77
2022-10-09T13:24:10.401Z,23.77
2022-10-09T13:26:42.345Z,23.79
2022-10-09T13:29:16.785Z,23.80
2022-10-09T13:34:29.060Z,23.82
2022-10-09T13:36:56.631Z,23.81
2022-10-09T13:39:23.167Z,23.82
2022-10-09T13:41:55.707Z,23.82
2022-10-09T13:44:22.341Z,23.84
2022-10-09T13:46:48.908Z,23.86
2022-10-09T13:49:16.011Z,23.87
2022-10-09T13:51:42.914Z,23.86
2022-10-09T13:54:09.415Z,23.86
2022-10-09T13:56:35.920Z,23.89
2022-10-09T14:01:43.455Z,23.90
2022-10-09T14:04:10.199Z,23.91
2022-10-09T14:06:41.258Z,23.91
2022-10-09T14:09:11.915Z,23.93
2022-10-09T14:14:20.155Z,23.96
2022-10-09T14:16:46.778Z,23.96
2022-10-09T14:19:15.241Z,23.97
2022-10-09T14:21:41.771Z,23.98
2022-10-09T14:24:08.435Z,24.01
2022-10-09T14:26:35.122Z,24.02
2022-10-09T14:31:43.309Z,24.02
2022-10-09T14:34:13.082Z,24.04
2022-10-09T14:36:40.066Z,24.04
2022-10-09T14:39:08.437Z,24.05
2022-10-09T14:44:15.731Z,24.08
2022-10-09T14:46:42.390Z,24.10
2022-10-09T14:49:10.597Z,24.11
2022-10-09T14:54:20.243Z,24.14
2022-10-09T14:59:28.109Z,24.16
2022-10-09T15:01:54.625Z,24.17
2022-10-09T15:04:21.123Z,24.18
2022-10-09T15:06:47.670Z,24.20
2022-10-09T15:09:14.113Z,24.20
2022-10-09T15:11:48.478Z,24.20
2022-10-09T15:14:18.803Z,24.24
2022-10-09T15:16:45.525Z,24.24
2022-10-09T15:19:19.806Z,24.24
2022-10-09T15:21:46.363Z,24.25
2022-10-09T15:24:16.563Z,24.26
2022-10-09T15:32:04.109Z,24.30
2022-10-09T15:34:30.940Z,24.31
2022-10-09T15:42:18.681Z,24.34
2022-10-09T15:44:45.245Z,24.35
2022-10-09T15:47:16.611Z,24.37
2022-10-09T15:49:50.152Z,24.38
2022-10-09T15:54:59.245Z,24.39
2022-10-09T16:00:06.447Z,24.42
2022-10-09T16:02:32.953Z,24.42
2022-10-09T16:07:41.336Z,24.42
2022-10-09T16:10:08.035Z,24.40
2022-10-09T16:15:27.135Z,24.43
2022-10-09T16:17:54.353Z,24.43
2022-10-09T16:20:20.839Z,24.44
2022-10-09T16:22:51.301Z,24.42
2022-10-09T16:25:18.204Z,24.41
2022-10-09T16:27:44.647Z,24.44
2022-10-09T16:30:13.767Z,24.42
2022-10-09T16:32:40.527Z,24.43
2022-10-09T16:37:55.561Z,24.44
2022-10-09T16:40:32.655Z,24.43
2022-10-09T16:43:08.468Z,24.43
2022-10-09T16:48:16.459Z,24.44
2022-10-09T16:50:43.130Z,24.45
2022-10-09T16:53:11.930Z,24.44
2022-10-09T16:55:39.418Z,24.45
2022-10-09T16:58:05.989Z,24.44
2022-10-09T17:08:30.621Z,24.44
2022-10-09T17:10:57.190Z,24.44
2022-10-09T17:13:23.772Z,24.43
2022-10-09T17:15:50.823Z,24.45
2022-10-09T17:18:17.401Z,24.43
2022-10-09T17:26:25.430Z,24.43
2022-10-09T17:31:34.409Z,24.43
2022-10-09T17:34:03.197Z,24.43
2022-10-09T17:36:32.411Z,24.45
2022-10-09T17:38:59.358Z,24.44
2022-10-09T17:41:27.056Z,24.43
2022-10-09T17:43:54.492Z,24.42
2022-10-09T17:46:22.425Z,24.42
2022-10-09T17:51:42.415Z,24.42
2022-10-09T17:54:14.052Z,24.42
2022-10-09T17:59:22.036Z,24.40
2022-10-09T18:01:56.466Z,24.41
2022-10-09T18:04:22.937Z,24.42
2022-10-09T18:06:57.082Z,24.42
2022-10-09T18:12:03.932Z,24.40
2022-10-09T18:17:15.265Z,24.39
2022-10-09T18:19:41.835Z,24.39
2022-10-09T18:22:08.290Z,24.39
2022-10-09T18:24:34.898Z,24.37
2022-10-09T18:27:01.468Z,24.38
2022-10-09T18:29:28.199Z,24.39
2022-10-09T18:34:47.669Z,24.40
2022-10-09T18:37:16.465Z,24.38
2022-10-09T18:39:53.365Z,24.37
2022-10-09T18:42:19.990Z,24.36
2022-10-09T18:44:47.172Z,24.34
2022-10-09T18:47:18.695Z,24.37
2022-10-09T18:49:54.293Z,24.36
2022-10-09T18:52:21.055Z,24.36
2022-10-09T18:54:50.613Z,24.36
2022-10-09T18:57:17.662Z,24.35
2022-10-09T19:02:26.410Z,24.35
2022-10-09T19:04:56.017Z,24.32
2022-10-09T19:10:09.047Z,24.33
2022-10-09T19:12:35.592Z,24.33
2022-10-09T19:15:02.174Z,24.32
2022-10-09T19:17:28.720Z,24.33
2022-10-09T19:19:55.256Z,24.32
2022-10-09T19:22:31.415Z,24.32
2022-10-09T19:24:58.236Z,24.33
2022-10-09T19:27:26.688Z,24.32
2022-10-09T19:29:53.517Z,24.29
2022-10-09T19:32:23.823Z,24.31
2022-10-09T19:34:55.577Z,24.31
2022-10-09T19:37:26.067Z,24.31
2022-10-09T19:39:55.573Z,24.30
2022-10-09T19:42:22.866Z,24.29
2022-10-09T19:44:49.389Z,24.28
2022-10-09T19:49:56.387Z,24.27
2022-10-09T19:55:03.965Z,24.26
2022-10-09T19:57:38.423Z,24.27
2022-10-09T20:00:17.399Z,24.26
2022-10-09T20:02:44.068Z,24.22
2022-10-09T20:05:10.768Z,24.25
2022-10-09T20:10:18.909Z,24.26
2022-10-09T20:12:45.389Z,24.26
2022-10-09T20:15:12.019Z,24.29
2022-10-09T20:17:38.520Z,24.27
2022-10-09T20:20:06.492Z,24.27
2022-10-09T20:25:12.184Z,24.23
2022-10-09T20:27:38.809Z,24.24
2022-10-09T20:30:05.875Z,24.23
2022-10-09T20:32:42.241Z,24.22
2022-10-09T20:35:23.113Z,24.22
2022-10-09T20:37:54.181Z,24.21
2022-10-09T20:40:20.686Z,24.21
2022-10-09T20:45:28.127Z,24.19
2022-10-09T20:50:52.291Z,24.20
2022-10-09T20:53:18.823Z,24.18
2022-10-09T20:55:45.515Z,24.17
2022-10-09T20:58:12.177Z,24.16
2022-10-09T21:00:43.172Z,24.16
2022-10-09T21:03:12.475Z,24.15
2022-10-09T21:05:43.643Z,24.16
2022-10-09T21:08:10.527Z,24.15
2022-10-09T21:10:45.093Z,24.15
2022-10-09T21:13:12.179Z,24.15
2022-10-09T21:15:46.842Z,24.14
2022-10-09T21:18:14.924Z,24.13
2022-10-09T21:20:44.261Z,24.14
2022-10-09T21:23:12.457Z,24.13
2022-10-09T21:25:39.276Z,24.10
2022-10-09T21:28:05.891Z,24.11
2022-10-09T21:33:19.557Z,24.13
2022-10-09T21:35:50.009Z,24.11
2022-10-09T21:38:17.720Z,24.09
2022-10-09T21:40:44.837Z,24.09
2022-10-09T21:43:12.254Z,24.09
2022-10-09T21:45:53.406Z,24.09
2022-10-09T21:51:00.287Z,24.09
2022-10-09T21:53:33.264Z,24.08
2022-10-09T21:58:36.415Z,24.05
2022-10-09T22:03:55.649Z,24.06
2022-10-09T22:09:12.546Z,24.06
2022-10-09T22:14:19.414Z,24.05
2022-10-09T22:19:26.835Z,24.03
2022-10-09T22:21:55.478Z,24.03
2022-10-09T22:24:30.466Z,24.01
2022-10-09T22:26:57.482Z,24.02
2022-10-09T22:29:25.263Z,24.03
2022-10-09T22:31:51.858Z,24.00
2022-10-09T22:34:19.388Z,24.01
2022-10-09T22:39:27.398Z,23.99
2022-10-09T22:41:54.222Z,23.99
2022-10-09T22:44:20.988Z,23.98
2022-10-09T22:46:59.447Z,23.99
2022-10-09T22:49:25.990Z,23.99
2022-10-09T22:51:52.516Z,23.97
2022-10-09T22:54:32.679Z,23.97
2022-10-09T22:57:12.290Z,23.98
2022-10-09T22:59:38.777Z,23.96
2022-10-09T23:05:00.368Z,23.96
2022-10-09T23:07:35.818Z,23.97
2022-10-09T23:10:02.306Z,23.96
2022-10-09T23:12:28.761Z,23.94
2022-10-09T23:14:55.204Z,23.92
2022-10-09T23:20:02.048Z,23.91
2022-10-09T23:22:35.468Z,23.93
2022-10-09T23:25:02.646Z,23.93
2022-10-09T23:27:29.464Z,23.91
2022-10-09T23:29:55.926Z,23.91
2022-10-09T23:32:22.400Z,23.91
2022-10-09T23:37:29.826Z,23.90
2022-10-09T23:39:56.306Z,23.89
2022-10-09T23:45:03.714Z,23.89
2022-10-09T23:47:38.621Z,23.89
2022-10-09T23:50:06.483Z,23.87
2022-10-09T23:55:19.250Z,23.87
2022-10-09T23:57:45.690Z,23.85
